Time;durP1;ratioP1;P1;durP2;ratioP2;P2;SDS_P1;SDS_P2;PMS_P1;PMS_P2;Temp;Humidity;BMP_temperature;BMP_pressure;BME280_temperature;BME280_humidity;BME280_pressure;Samples;Min_cycle;Max_cycle;Signal;HPM_P1;HPM_P2
2023/11/22 00:09:02;;;;;;;79.40;25.50;;;;;;;-0.75;71.78;101245.31;681026;1260;140681;-78
2023/11/22 00:24:40;;;;;;;61.10;23.30;;;;;;;-0.86;71.68;101271.85;674498;1273;141040;-78
2023/11/22 00:40:17;;;;;;;55.30;21.80;;;;;;;-1.04;71.83;101265.44;676724;1260;140209;-79
2023/11/22 00:55:55;;;;;;;53.10;20.70;;;;;;;-1.21;71.66;101268.39;672565;1269;141223;-79
2023/11/22 01:11:32;;;;;;;75.90;27.50;;;;;;;-1.47;71.58;101262.98;677709;1258;138952;-79
2023/11/22 01:27:10;;;;;;;59.40;24.70;;;;;;;-1.55;71.76;101285.45;676160;1257;140757;-79
2023/11/22 01:42:47;;;;;;;53.70;21.50;;;;;;;-1.65;72.04;101292.20;677608;1257;140912;-79
2023/11/22 01:58:24;;;;;;;54.00;21.30;;;;;;;-1.69;72.30;101301.73;673889;1260;140265;-78
2023/11/22 02:14:01;;;;;;;49.70;21.40;;;;;;;-1.55;72.37;101314.80;672262;1260;140725;-80
2023/11/22 02:29:40;;;;;;;51.40;22.20;;;;;;;-1.46;72.26;101339.66;675716;1257;138928;-81
2023/11/22 02:45:17;;;;;;;40.80;18.60;;;;;;;-1.24;72.66;101365.28;674766;1260;139419;-78
2023/11/22 03:00:56;;;;;;;31.70;14.50;;;;;;;-1.34;72.94;101372.36;675804;1257;139531;-80
2023/11/22 03:16:33;;;;;;;43.70;17.00;;;;;;;-1.44;74.02;101381.15;676920;1260;139490;-81
2023/11/22 03:32:11;;;;;;;41.90;15.80;;;;;;;-1.68;76.39;101398.95;674818;1260;141094;-81
2023/11/22 03:47:48;;;;;;;40.30;17.70;;;;;;;-1.45;77.15;101428.37;678860;1270;140129;-79
2023/11/22 04:03:26;;;;;;;40.50;16.00;;;;;;;-1.19;76.39;101414.46;664552;1256;140643;-79
2023/11/22 04:19:03;;;;;;;48.90;19.30;;;;;;;-1.18;76.29;101400.52;673433;1274;139684;-80
2023/11/22 04:34:40;;;;;;;120.70;39.40;;;;;;;-1.32;75.99;101408.73;676119;1261;140708;-78
2023/11/22 04:50:17;;;;;;;183.40;62.60;;;;;;;-1.53;76.03;101436.95;678197;1261;141075;-79
2023/11/22 05:05:54;;;;;;;139.90;47.20;;;;;;;-1.47;76.67;101462.91;678667;1260;139057;-78
2023/11/22 05:21:32;;;;;;;116.70;40.00;;;;;;;-1.20;76.88;101484.52;676401;1258;141553;-80
2023/11/22 05:37:08;;;;;;;316.50;80.70;;;;;;;-1.19;77.42;101486.39;674606;1256;140717;-79
2023/11/22 05:52:39;;;;;;;109.80;38.70;;;;;;;-0.94;77.53;101493.11;676267;1264;140648;-79
2023/11/22 06:08:15;;;;;;;340.60;107.90;;;;;;;-1.07;77.66;101524.11;678010;1260;141660;-78
2023/11/22 06:23:52;;;;;;;114.80;40.90;;;;;;;-1.33;76.82;101556.19;677506;1260;139374;-78
2023/11/22 06:39:29;;;;;;;334.00;99.90;;;;;;;-1.74;76.86;101562.04;672819;1260;140181;-78
2023/11/22 06:55:09;;;;;;;237.80;85.60;;;;;;;-1.59;77.01;101572.77;677169;1257;139557;-80
2023/11/22 07:10:47;;;;;;;225.60;80.90;;;;;;;-1.27;77.55;101596.42;674098;1260;140453;-80
2023/11/22 07:26:26;;;;;;;211.00;76.70;;;;;;;-0.91;77.71;101601.08;677762;1256;139537;-80
2023/11/22 07:42:02;;;;;;;145.90;58.70;;;;;;;-0.42;78.18;101612.31;682201;1261;139159;-80
2023/11/22 07:57:40;;;;;;;144.60;54.70;;;;;;;-0.35;78.30;101627.13;682794;1260;140308;-80
2023/11/22 08:13:19;;;;;;;252.40;80.80;;;;;;;0.23;79.13;101635.83;680677;1260;140130;-80
2023/11/22 08:28:56;;;;;;;161.40;61.10;;;;;;;0.55;79.63;101653.48;682516;1258;139916;-80
2023/11/22 08:44:34;;;;;;;105.20;40.90;;;;;;;0.87;79.59;101652.02;682730;1256;140622;-80
2023/11/22 09:00:14;;;;;;;70.10;35.30;;;;;;;1.02;78.76;101640.77;674974;1258;138760;-78
2023/11/22 09:15:51;;;;;;;49.30;24.70;;;;;;;1.22;77.64;101618.00;682917;1260;140061;-79
2023/11/22 09:31:28;;;;;;;;;;;;;;;1.63;76.71;101624.77;679765;1260;139089;-79
2023/11/22 09:47:05;;;;;;;63.00;27.30;;;;;;;1.81;75.72;101606.66;683222;1261;22326;-79
2023/11/22 10:02:48;;;;;;;59.20;25.20;;;;;;;2.17;74.67;101576.71;678330;1260;24439;-79
2023/11/22 10:18:26;;;;;;;35.40;16.80;;;;;;;2.84;73.54;101572.91;675857;1260;26104;-80
2023/11/22 10:34:09;;;;;;;41.30;20.30;;;;;;;2.67;72.08;101574.05;672672;1270;22641;-81
2023/11/22 10:49:49;;;;;;;54.70;21.20;;;;;;;2.71;70.39;101580.83;676166;1262;22441;-81
2023/11/22 11:05:34;;;;;;;29.60;14.40;;;;;;;2.74;69.84;101578.98;674562;1262;139075;-82
2023/11/22 11:21:15;;;;;;;19.20;11.60;;;;;;;2.84;69.43;101573.98;673763;1273;138921;-83
2023/11/22 11:36:59;;;;;;;25.90;13.60;;;;;;;2.66;67.84;101556.27;677011;1261;140249;-82
2023/11/22 11:52:37;;;;;;;82.90;29.50;;;;;;;2.79;66.97;101546.14;680440;1262;140739;-81
2023/11/22 12:08:16;;;;;;;79.80;28.80;;;;;;;2.75;65.86;101550.60;676935;1257;138865;-79
2023/11/22 12:23:54;;;;;;;25.80;11.90;;;;;;;2.88;66.08;101523.38;676654;1261;139316;-81
2023/11/22 12:39:32;;;;;;;26.70;11.80;;;;;;;2.87;65.29;101527.56;677706;1262;138727;-80
2023/11/22 12:55:08;;;;;;;32.30;13.80;;;;;;;2.88;63.68;101517.30;679512;1263;140534;-81
2023/11/22 13:10:58;;;;;;;42.00;13.90;;;;;;;3.00;64.07;101511.17;679026;1257;140337;-81
2023/11/22 13:26:35;;;;;;;29.30;13.00;;;;;;;2.91;63.74;101497.52;676273;1256;139478;-81
2023/11/22 13:42:13;;;;;;;24.30;11.10;;;;;;;2.69;63.80;101454.76;679515;1262;140672;-81
2023/11/22 13:57:50;;;;;;;44.50;15.70;;;;;;;2.72;64.18;101438.95;675404;1260;139572;-81
2023/11/22 14:13:27;;;;;;;40.70;16.10;;;;;;;2.66;64.36;101455.20;681583;1260;139477;-80
2023/11/22 14:29:05;;;;;;;88.60;29.70;;;;;;;2.59;64.32;101486.89;680984;1262;139826;-80
2023/11/22 14:44:42;;;;;;;28.20;13.80;;;;;;;2.34;65.19;101454.44;679077;1262;139645;-79
2023/11/22 15:00:19;;;;;;;51.70;20.20;;;;;;;2.13;66.20;101422.90;677407;1261;139879;-80
2023/11/22 15:15:57;;;;;;;76.90;30.70;;;;;;;1.94;67.24;101424.73;675299;1260;140797;-79
2023/11/22 15:31:34;;;;;;;57.30;19.90;;;;;;;2.00;66.68;101456.11;678425;1260;139044;-80
2023/11/22 15:47:11;;;;;;;75.80;24.80;;;;;;;1.74;67.10;101449.04;674131;1271;140205;-80
2023/11/22 16:02:55;;;;;;;35.60;16.40;;;;;;;1.84;67.30;101459.55;667551;1262;10139931;-80
2023/11/22 16:18:33;;;;;;;62.40;23.30;;;;;;;1.66;67.92;101442.39;677073;1269;139869;-79
2023/11/22 16:34:12;;;;;;;99.90;37.80;;;;;;;1.46;68.45;101425.60;677121;1260;140071;-79
2023/11/22 16:49:52;;;;;;;41.20;17.20;;;;;;;1.40;69.12;101415.63;681233;1261;140332;-79
2023/11/22 17:05:29;;;;;;;44.80;19.60;;;;;;;1.20;69.52;101413.33;680708;1257;138821;-79
2023/11/22 17:21:06;;;;;;;44.90;19.10;;;;;;;1.02;70.10;101389.22;681470;1269;139881;-79
2023/11/22 17:36:46;;;;;;;79.40;31.30;;;;;;;1.02;71.31;101323.24;676827;1269;139650;-79
2023/11/22 17:52:22;;;;;;;63.50;30.00;;;;;;;1.04;71.86;101313.16;680928;1257;139554;-79
2023/11/22 18:07:59;;;;;;;;;;;;;;;1.10;71.75;101305.38;681999;1262;140228;-79
2023/11/22 18:23:36;;;;;;;44.10;18.10;;;;;;;1.13;72.20;101311.84;682246;1262;128053;-78
2023/11/22 18:39:13;;;;;;;43.00;18.20;;;;;;;1.24;72.80;101312.55;675500;1264;139596;-79
2023/11/22 18:54:50;;;;;;;;;;;;;;;1.29;72.31;101272.40;682167;1264;140505;-79
2023/11/22 19:10:27;;;;;;;44.80;16.40;;;;;;;1.34;71.78;101236.71;679138;1273;126954;-78
2023/11/22 19:26:06;;;;;;;31.70;13.90;;;;;;;1.32;70.58;101215.77;679950;1261;140164;-78
2023/11/22 19:41:43;;;;;;;42.40;15.70;;;;;;;1.38;69.76;101199.00;682164;1257;141663;-79
2023/11/22 19:57:22;;;;;;;60.60;23.70;;;;;;;1.47;69.12;101193.33;678550;1261;139068;-79
2023/11/22 20:12:58;;;;;;;36.30;13.50;;;;;;;1.55;67.94;101188.92;680293;1260;139186;-78
2023/11/22 20:28:36;;;;;;;37.20;12.50;;;;;;;1.47;68.01;101129.38;679625;1259;139403;-78
2023/11/22 20:44:14;;;;;;;34.70;13.10;;;;;;;1.40;67.88;101120.49;680448;1272;140493;-79
2023/11/22 20:59:52;;;;;;;44.50;17.20;;;;;;;1.31;68.02;101095.63;680987;1263;140099;-79
2023/11/22 21:15:29;;;;;;;42.70;17.40;;;;;;;1.31;68.32;101064.96;679714;1259;139421;-79
2023/11/22 21:31:06;;;;;;;32.80;14.80;;;;;;;1.09;68.20;101028.05;678961;1258;140101;-79
2023/11/22 21:46:43;;;;;;;38.80;14.90;;;;;;;1.27;66.85;101006.52;675107;1263;140698;-79
2023/11/22 22:02:20;;;;;;;30.50;13.20;;;;;;;0.91;67.94;100967.53;674720;1259;139708;-79
2023/11/22 22:17:57;;;;;;;32.30;13.00;;;;;;;0.80;66.81;100940.02;677151;1259;139882;-79
2023/11/22 22:33:36;;;;;;;27.60;12.80;;;;;;;0.75;66.74;100879.42;680181;1259;140259;-78
2023/11/22 22:49:13;;;;;;;23.40;12.10;;;;;;;0.74;66.20;100833.13;679951;1257;140439;-79
2023/11/22 23:04:51;;;;;;;31.20;12.50;;;;;;;0.90;65.81;100797.75;677499;1263;139739;-78
2023/11/22 23:20:28;;;;;;;31.50;13.90;;;;;;;0.99;65.53;100730.52;681617;1262;140438;-78
2023/11/22 23:36:20;;;;;;;28.70;13.00;;;;;;;0.93;65.26;100693.58;679668;1263;140607;-78
2023/11/22 23:51:57;;;;;;;31.90;12.90;;;;;;;0.83;65.94;100652.47;682068;1258;141146;-78
